createdAt,value
2022-11-17T00:01:21.658Z,96651.88
2022-11-17T00:03:49.148Z,96649.56
2022-11-17T00:06:16.839Z,96645.47
2022-11-17T00:08:43.849Z,96643.84
2022-11-17T00:11:10.278Z,96641.47
2022-11-17T00:13:55.094Z,96633.75
2022-11-17T00:16:22.403Z,96625.91
2022-11-17T00:19:07.957Z,96634.59
2022-11-17T00:21:34.930Z,96630.00
2022-11-17T00:24:01.907Z,96619.09
2022-11-17T00:26:30.973Z,96623.47
2022-11-17T00:28:59.996Z,96618.50
2022-11-17T00:31:47.378Z,96618.22
2022-11-17T00:34:22.495Z,96614.38
2022-11-17T00:36:53.898Z,96615.22
2022-11-17T00:39:22.870Z,96606.91
2022-11-17T00:41:49.999Z,96604.94
2022-11-17T00:44:16.898Z,96602.72
2022-11-17T00:46:43.362Z,96586.00
2022-11-17T00:49:11.311Z,96577.97
2022-11-17T00:51:38.018Z,96576.91
2022-11-17T00:54:06.215Z,96576.28
2022-11-17T00:56:33.640Z,96567.16
2022-11-17T00:59:00.088Z,96562.09
2022-11-17T01:01:26.875Z,96545.91
2022-11-17T01:04:03.132Z,96547.75
2022-11-17T01:06:40.948Z,96542.03
2022-11-17T01:09:12.846Z,96544.84
2022-11-17T01:11:39.485Z,96543.75
2022-11-17T01:14:06.333Z,96542.03
2022-11-17T01:16:33.695Z,96540.72
2022-11-17T01:19:02.091Z,96517.63
2022-11-17T01:21:30.952Z,96524.84
2022-11-17T01:23:59.601Z,96512.50
2022-11-17T01:26:32.861Z,96509.28
2022-11-17T01:29:00.972Z,96509.19
2022-11-17T01:31:32.972Z,96507.53
2022-11-17T01:33:59.815Z,96494.06
2022-11-17T01:36:30.520Z,96489.25
2022-11-17T01:38:56.891Z,96487.41
2022-11-17T01:41:26.192Z,96486.84
2022-11-17T01:43:56.146Z,96482.44
2022-11-17T01:46:25.424Z,96479.25
2022-11-17T01:48:54.399Z,96477.41
2022-11-17T01:51:21.803Z,96466.78
2022-11-17T01:53:51.199Z,96471.13
2022-11-17T01:56:25.352Z,96453.97
2022-11-17T01:58:58.170Z,96444.13
2022-11-17T02:01:24.708Z,96446.47
2022-11-17T02:03:51.609Z,96444.13
2022-11-17T02:06:31.226Z,96436.16
2022-11-17T02:08:58.224Z,96435.41
2022-11-17T02:11:25.904Z,96431.09
2022-11-17T02:13:55.657Z,96423.53
2022-11-17T02:16:22.029Z,96424.69
2022-11-17T02:18:49.131Z,96430.06
2022-11-17T02:21:55.049Z,96418.78
2022-11-17T02:24:27.104Z,96425.47
2022-11-17T02:27:21.321Z,96417.34
2022-11-17T02:30:10.873Z,96401.16
2022-11-17T02:33:02.436Z,96397.78
2022-11-17T02:35:52.095Z,96392.09
2022-11-17T02:39:00.308Z,96402.22
2022-11-17T02:41:36.161Z,96392.22
2022-11-17T02:44:41.104Z,96375.59
2022-11-17T02:47:15.035Z,96371.91
2022-11-17T02:49:47.252Z,96360.66
2022-11-17T02:52:16.293Z,96351.97
2022-11-17T02:54:42.829Z,96358.63
2022-11-17T02:57:27.950Z,96356.44
2022-11-17T02:59:55.125Z,96356.03
2022-11-17T03:02:58.777Z,96348.78
2022-11-17T03:05:47.468Z,96341.59
2022-11-17T03:08:35.921Z,96338.06
2022-11-17T03:11:05.066Z,96323.16
2022-11-17T03:13:36.900Z,96309.63
2022-11-17T03:16:32.704Z,96317.97
2022-11-17T03:19:09.449Z,96311.31
2022-11-17T03:21:45.148Z,96319.69
2022-11-17T03:24:11.622Z,96320.19
2022-11-17T03:26:42.436Z,96317.13
2022-11-17T03:29:14.927Z,96312.81
2022-11-17T03:31:45.853Z,96309.34
2022-11-17T03:34:16.912Z,96320.31
2022-11-17T03:36:48.514Z,96331.38
2022-11-17T03:39:42.925Z,96313.66
2022-11-17T03:42:22.771Z,96335.66
2022-11-17T03:44:53.790Z,96332.13
2022-11-17T03:47:22.581Z,96326.50
2022-11-17T03:49:57.829Z,96316.03
2022-11-17T03:52:25.188Z,96300.53
2022-11-17T03:54:55.512Z,96292.84
2022-11-17T03:57:34.012Z,96270.47
2022-11-17T04:00:02.564Z,96270.78
2022-11-17T04:02:29.222Z,96275.56
2022-11-17T04:05:07.841Z,96283.34
2022-11-17T04:07:43.325Z,96272.47
2022-11-17T04:10:15.902Z,96274.91
2022-11-17T04:13:04.539Z,96274.97
2022-11-17T04:15:49.226Z,96277.66
2022-11-17T04:18:16.449Z,96274.00
2022-11-17T04:20:43.201Z,96274.09
2022-11-17T04:23:13.949Z,96285.50
2022-11-17T04:26:04.095Z,96284.19
2022-11-17T04:28:37.785Z,96291.44
2022-11-17T04:31:13.362Z,96290.59
2022-11-17T04:33:48.144Z,96292.06
2022-11-17T04:36:20.644Z,96292.94
2022-11-17T04:38:52.518Z,96291.13
2022-11-17T04:41:39.380Z,96280.56
2022-11-17T04:44:07.970Z,96272.50
2022-11-17T04:46:35.682Z,96271.56
2022-11-17T04:49:02.843Z,96270.84
2022-11-17T04:51:30.430Z,96256.66
2022-11-17T04:53:57.262Z,96248.09
2022-11-17T04:56:24.675Z,96252.91
2022-11-17T04:58:51.907Z,96265.25
2022-11-17T05:01:19.437Z,96262.81
2022-11-17T05:03:57.146Z,96252.06
2022-11-17T05:06:29.109Z,96257.44
2022-11-17T05:08:56.611Z,96254.91
2022-11-17T05:11:47.061Z,96256.50
2022-11-17T05:14:16.344Z,96255.69
2022-11-17T05:17:08.420Z,96256.38
2022-11-17T05:19:38.847Z,96253.31
2022-11-17T05:22:24.860Z,96251.00
2022-11-17T05:24:52.400Z,96257.38
2022-11-17T05:27:19.489Z,96255.97
2022-11-17T05:29:46.112Z,96235.94
2022-11-17T05:32:12.622Z,96230.56
2022-11-17T05:34:39.031Z,96237.03
2022-11-17T05:37:06.316Z,96225.41
2022-11-17T05:39:32.744Z,96237.97
2022-11-17T05:41:59.150Z,96228.34
2022-11-17T05:44:25.774Z,96218.50
2022-11-17T05:46:52.161Z,96217.00
2022-11-17T05:49:18.735Z,96214.63
2022-11-17T05:51:49.855Z,96206.63
2022-11-17T05:54:18.856Z,96216.22
2022-11-17T05:56:50.933Z,96219.94
2022-11-17T05:59:28.912Z,96237.91
2022-11-17T06:02:06.815Z,96219.09
2022-11-17T06:04:34.386Z,96204.59
2022-11-17T06:07:01.883Z,96192.91
2022-11-17T06:09:32.810Z,96197.06
2022-11-17T06:12:04.318Z,96198.47
2022-11-17T06:14:32.468Z,96199.06
2022-11-17T06:17:04.969Z,96218.31
2022-11-17T06:19:37.136Z,96223.28
2022-11-17T06:22:12.209Z,96219.94
2022-11-17T06:24:44.638Z,96226.41
2022-11-17T06:27:13.889Z,96233.75
2022-11-17T06:29:44.220Z,96227.00
2022-11-17T06:32:13.541Z,96232.25
2022-11-17T06:34:40.128Z,96234.66
2022-11-17T06:37:06.535Z,96236.19
2022-11-17T06:39:33.043Z,96226.34
2022-11-17T06:41:59.573Z,96235.56
2022-11-17T06:44:26.039Z,96230.91
2022-11-17T06:46:52.449Z,96227.69
2022-11-17T06:49:18.873Z,96224.94
2022-11-17T06:51:45.764Z,96220.03
2022-11-17T06:54:14.717Z,96210.53
2022-11-17T06:56:42.047Z,96223.50
2022-11-17T06:59:08.726Z,96218.44
2022-11-17T07:01:36.554Z,96224.25
2022-11-17T07:04:03.269Z,96217.72
2022-11-17T07:06:29.913Z,96226.47
2022-11-17T07:08:56.378Z,96224.94
2022-11-17T07:11:22.969Z,96228.63
2022-11-17T07:13:49.452Z,96230.66
2022-11-17T07:16:23.522Z,96225.16
2022-11-17T07:18:50.505Z,96218.84
2022-11-17T07:21:18.048Z,96215.78
2022-11-17T07:23:47.502Z,96222.19
2022-11-17T07:26:14.422Z,96217.69
2022-11-17T07:28:41.199Z,96207.09
2022-11-17T07:31:09.047Z,96218.38
2022-11-17T07:33:36.025Z,96207.06
2022-11-17T07:36:07.659Z,96211.84
2022-11-17T07:38:36.026Z,96207.13
2022-11-17T07:41:03.915Z,96217.63
2022-11-17T07:43:30.932Z,96212.16
2022-11-17T07:45:57.434Z,96218.69
2022-11-17T07:48:24.058Z,96215.03
2022-11-17T07:50:50.987Z,96203.78
2022-11-17T07:53:17.820Z,96202.56
2022-11-17T07:55:44.311Z,96210.06
2022-11-17T07:58:11.395Z,96214.53
2022-11-17T08:00:38.031Z,96204.59
2022-11-17T08:03:05.438Z,96208.22
2022-11-17T08:05:41.733Z,96206.22
2022-11-17T08:08:09.950Z,96207.47
2022-11-17T08:10:36.653Z,96202.34
2022-11-17T08:13:03.331Z,96204.63
2022-11-17T08:15:30.959Z,96203.41
2022-11-17T08:17:59.797Z,96199.06
2022-11-17T08:20:27.962Z,96201.53
2022-11-17T08:22:55.150Z,96201.97
2022-11-17T08:25:24.234Z,96205.03
2022-11-17T08:27:54.089Z,96196.63
2022-11-17T08:30:21.332Z,96200.94
2022-11-17T08:32:50.135Z,96190.94
2022-11-17T08:35:17.184Z,96200.50
2022-11-17T08:37:43.740Z,96199.09
2022-11-17T08:40:11.722Z,96204.00
2022-11-17T08:42:38.755Z,96201.75
2022-11-17T08:45:07.228Z,96198.28
2022-11-17T08:47:34.296Z,96194.78
2022-11-17T08:50:01.003Z,96200.72
2022-11-17T08:52:29.167Z,96204.41
2022-11-17T08:54:55.797Z,96203.22
2022-11-17T08:57:22.679Z,96206.03
2022-11-17T08:59:50.079Z,96216.66
2022-11-17T09:02:17.499Z,96224.81
2022-11-17T09:04:46.155Z,96221.13
2022-11-17T09:07:12.758Z,96230.34
2022-11-17T09:09:39.517Z,96229.09
2022-11-17T09:12:06.161Z,96238.31
2022-11-17T09:14:32.778Z,96244.63
2022-11-17T09:16:59.475Z,96240.00
2022-11-17T09:19:26.240Z,96236.97
2022-11-17T09:21:52.894Z,96235.34
2022-11-17T09:24:19.376Z,96249.03
2022-11-17T09:26:45.879Z,96258.84
2022-11-17T09:29:12.361Z,96254.38
2022-11-17T09:31:39.067Z,96260.72
2022-11-17T09:34:06.194Z,96252.50
2022-11-17T09:36:33.849Z,96262.56
2022-11-17T09:39:00.976Z,96269.53
2022-11-17T09:41:32.490Z,96261.75
2022-11-17T09:44:33.225Z,96263.00
2022-11-17T09:47:20.865Z,96277.75
2022-11-17T09:50:02.786Z,96278.75
2022-11-17T09:52:35.889Z,96294.16
2022-11-17T09:55:08.632Z,96299.84
2022-11-17T09:57:40.831Z,96294.28
2022-11-17T10:00:14.122Z,96304.09
2022-11-17T10:02:42.363Z,96302.88
2022-11-17T10:05:33.819Z,96305.56
2022-11-17T10:08:08.384Z,96306.44
2022-11-17T10:10:49.994Z,96299.88
2022-11-17T10:13:30.800Z,96308.91
2022-11-17T10:16:26.660Z,96292.31
2022-11-17T10:18:53.183Z,96315.69
2022-11-17T10:21:19.812Z,96318.13
2022-11-17T10:23:56.324Z,96311.53
2022-11-17T10:26:22.815Z,96319.88
2022-11-17T10:29:08.698Z,96317.06
2022-11-17T10:31:46.245Z,96313.81
2022-11-17T10:34:37.060Z,96307.44
2022-11-17T10:37:30.241Z,96299.91
2022-11-17T10:40:23.585Z,96300.03
2022-11-17T10:45:54.675Z,96306.22
2022-11-17T10:48:36.564Z,96311.09
2022-11-17T10:51:19.329Z,96301.91
2022-11-17T10:54:03.117Z,96309.66
2022-11-17T10:56:32.915Z,96303.00
2022-11-17T10:59:08.266Z,96297.78
2022-11-17T11:01:37.938Z,96302.22
2022-11-17T11:04:06.791Z,96300.13
2022-11-17T11:06:34.780Z,96306.19
2022-11-17T11:09:10.338Z,96306.25
2022-11-17T11:11:45.722Z,96300.63
2022-11-17T11:14:12.111Z,96300.75
2022-11-17T11:16:42.451Z,96307.00
2022-11-17T11:19:15.146Z,96306.00
2022-11-17T11:21:53.522Z,96302.31
2022-11-17T11:24:41.892Z,96301.78
2022-11-17T11:27:14.459Z,96304.03
2022-11-17T11:30:09.634Z,96298.59
2022-11-17T11:33:23.035Z,96305.63
2022-11-17T11:36:15.608Z,96309.94
2022-11-17T11:39:17.499Z,96308.91
2022-11-17T11:42:07.506Z,96310.97
2022-11-17T11:44:41.183Z,96303.25
2022-11-17T11:47:19.786Z,96315.09
2022-11-17T11:49:52.736Z,96312.69
2022-11-17T11:52:22.269Z,96308.38
2022-11-17T11:54:56.949Z,96321.59
2022-11-17T11:57:30.871Z,96326.72
2022-11-17T12:00:05.988Z,96326.00
2022-11-17T12:03:04.375Z,96334.13
2022-11-17T12:05:47.998Z,96335.84
2022-11-17T12:08:20.846Z,96337.44
2022-11-17T12:11:38.236Z,96339.09
2022-11-17T12:14:06.858Z,96333.56
2022-11-17T12:16:35.586Z,96333.84
2022-11-17T12:19:02.760Z,96335.72
2022-11-17T12:21:30.397Z,96335.47
2022-11-17T12:24:18.021Z,96340.66
2022-11-17T12:26:44.994Z,96326.41
2022-11-17T12:29:20.473Z,96333.28
2022-11-17T12:31:48.941Z,96325.28
2022-11-17T12:34:27.626Z,96317.75
2022-11-17T12:37:13.030Z,96334.63
2022-11-17T12:39:59.642Z,96336.19
2022-11-17T12:42:31.363Z,96338.53
2022-11-17T12:45:00.910Z,96345.63
2022-11-17T12:47:54.772Z,96348.59
2022-11-17T12:50:48.965Z,96350.97
2022-11-17T12:53:30.550Z,96348.19
2022-11-17T12:56:07.725Z,96351.28
2022-11-17T12:58:52.436Z,96356.50
2022-11-17T13:01:51.038Z,96354.44
2022-11-17T13:04:21.347Z,96355.16
2022-11-17T13:07:08.611Z,96358.81
2022-11-17T13:09:36.475Z,96361.72
2022-11-17T13:12:08.319Z,96355.88
2022-11-17T13:14:37.031Z,96355.16
2022-11-17T13:17:03.930Z,96360.94
2022-11-17T13:19:34.999Z,96360.53
2022-11-17T13:22:14.439Z,96360.53
2022-11-17T13:24:52.150Z,96358.38
2022-11-17T13:27:23.177Z,96362.50
2022-11-17T13:29:50.850Z,96357.19
2022-11-17T13:32:24.753Z,96355.63
2022-11-17T13:34:52.877Z,96346.13
2022-11-17T13:37:25.522Z,96363.00
2022-11-17T13:40:02.905Z,96358.03
2022-11-17T13:42:32.123Z,96350.00
2022-11-17T13:45:03.184Z,96351.59
2022-11-17T13:47:39.447Z,96357.53
2022-11-17T13:50:32.751Z,96359.81
2022-11-17T13:53:23.874Z,96356.03
2022-11-17T13:55:51.385Z,96357.03
2022-11-17T13:58:26.498Z,96355.22
2022-11-17T14:00:56.887Z,96367.97
2022-11-17T14:03:38.382Z,96370.25
2022-11-17T14:06:08.124Z,96376.47
2022-11-17T14:08:35.862Z,96387.50
2022-11-17T14:11:11.531Z,96386.16
2022-11-17T14:13:47.099Z,96379.72
2022-11-17T14:16:40.220Z,96385.78
2022-11-17T14:19:16.014Z,96377.94
2022-11-17T14:22:03.281Z,96380.81
2022-11-17T14:24:31.976Z,96386.56
2022-11-17T14:26:58.762Z,96383.50
2022-11-17T14:29:27.813Z,96388.44
2022-11-17T14:31:55.702Z,96390.06
2022-11-17T14:34:23.258Z,96392.31
2022-11-17T14:36:58.492Z,96391.50
2022-11-17T14:39:29.597Z,96388.03
2022-11-17T14:41:56.122Z,96391.28
2022-11-17T14:44:26.789Z,96384.72
2022-11-17T14:46:53.340Z,96376.94
2022-11-17T14:49:19.922Z,96384.94
2022-11-17T14:51:49.577Z,96380.22
2022-11-17T14:54:16.144Z,96386.78
2022-11-17T14:56:42.972Z,96382.44
2022-11-17T14:59:11.108Z,96391.47
2022-11-17T15:01:38.707Z,96377.72
2022-11-17T15:04:27.379Z,96390.59
2022-11-17T15:06:52.981Z,96383.44
2022-11-17T15:09:20.704Z,96382.59
2022-11-17T15:11:47.607Z,96387.34
2022-11-17T15:14:14.542Z,96395.94
2022-11-17T15:16:41.428Z,96398.38
2022-11-17T15:19:07.862Z,96392.72
2022-11-17T15:21:34.666Z,96403.78
2022-11-17T15:24:03.474Z,96394.97
2022-11-17T15:26:30.091Z,96402.75
2022-11-17T15:28:59.589Z,96403.59
2022-11-17T15:31:26.081Z,96400.31
2022-11-17T15:33:52.997Z,96400.91
2022-11-17T15:36:21.410Z,96408.09
2022-11-17T15:38:48.088Z,96412.59
2022-11-17T15:41:15.690Z,96416.69
2022-11-17T15:43:44.174Z,96413.03
2022-11-17T15:46:12.202Z,96414.19
2022-11-17T15:48:42.781Z,96408.41
2022-11-17T15:51:17.919Z,96420.91
2022-11-17T15:53:46.919Z,96415.22
2022-11-17T15:56:19.634Z,96408.06
2022-11-17T15:58:47.710Z,96407.00
2022-11-17T16:01:24.842Z,96414.78
2022-11-17T16:03:53.063Z,96416.81
2022-11-17T16:06:19.540Z,96417.00
2022-11-17T16:08:46.016Z,96420.88
2022-11-17T16:11:12.510Z,96411.41
2022-11-17T16:13:38.983Z,96400.59
2022-11-17T16:16:06.943Z,96406.09
2022-11-17T16:18:34.576Z,96399.56
2022-11-17T16:21:05.872Z,96409.81
2022-11-17T16:23:38.714Z,96418.00
2022-11-17T16:26:05.312Z,96421.25
2022-11-17T16:28:31.835Z,96423.53
2022-11-17T16:30:58.318Z,96429.66
2022-11-17T16:33:25.191Z,96430.50
2022-11-17T16:35:51.893Z,96428.06
2022-11-17T16:38:18.486Z,96429.56
2022-11-17T16:40:44.915Z,96431.31
2022-11-17T16:43:12.928Z,96430.97
2022-11-17T16:45:44.975Z,96438.97
2022-11-17T16:48:12.831Z,96428.00
2022-11-17T16:50:40.333Z,96437.88
2022-11-17T16:53:07.279Z,96447.72
2022-11-17T16:55:35.857Z,96449.34
2022-11-17T16:58:04.253Z,96446.31
2022-11-17T17:00:31.362Z,96454.09
2022-11-17T17:02:58.195Z,96455.28
2022-11-17T17:05:25.529Z,96459.59
2022-11-17T17:07:52.135Z,96453.38
2022-11-17T17:10:18.802Z,96452.88
2022-11-17T17:12:45.300Z,96455.34
2022-11-17T17:15:12.004Z,96451.88
2022-11-17T17:17:38.528Z,96458.53
2022-11-17T17:20:05.479Z,96462.19
2022-11-17T17:22:32.076Z,96465.81
2022-11-17T17:24:58.566Z,96465.25
2022-11-17T17:27:24.992Z,96462.50
2022-11-17T17:29:54.591Z,96463.56
2022-11-17T17:32:21.009Z,96465.72
2022-11-17T17:34:47.520Z,96464.84
2022-11-17T17:37:14.082Z,96461.41
2022-11-17T17:39:40.660Z,96461.38
2022-11-17T17:42:07.128Z,96458.00
2022-11-17T17:44:33.747Z,96462.50
2022-11-17T17:47:00.194Z,96462.19
2022-11-17T17:49:26.659Z,96454.09
2022-11-17T17:51:53.226Z,96463.09
2022-11-17T17:54:21.477Z,96461.06
2022-11-17T17:56:48.563Z,96468.34
2022-11-17T17:59:16.701Z,96463.38
2022-11-17T18:01:46.044Z,96461.94
2022-11-17T18:04:15.771Z,96469.03
2022-11-17T18:06:48.664Z,96475.59
2022-11-17T18:09:19.050Z,96472.75
2022-11-17T18:11:47.849Z,96488.94
2022-11-17T18:14:14.364Z,96487.91
2022-11-17T18:16:40.890Z,96492.88
2022-11-17T18:19:09.253Z,96500.75
2022-11-17T18:21:36.184Z,96501.19
2022-11-17T18:24:03.255Z,96502.47
2022-11-17T18:26:32.554Z,96512.25
2022-11-17T18:29:01.355Z,96510.72
2022-11-17T18:31:30.037Z,96514.63
2022-11-17T18:34:00.895Z,96514.16
2022-11-17T18:36:28.710Z,96517.03
2022-11-17T18:38:57.535Z,96523.03
2022-11-17T18:41:25.679Z,96517.63
2022-11-17T18:43:52.633Z,96518.81
2022-11-17T18:46:21.733Z,96515.38
2022-11-17T18:48:51.496Z,96517.75
2022-11-17T18:51:21.240Z,96522.63
2022-11-17T18:53:49.130Z,96526.00
2022-11-17T18:56:18.135Z,96519.94
2022-11-17T18:58:44.837Z,96515.66
2022-11-17T19:01:14.751Z,96522.78
2022-11-17T19:03:43.551Z,96517.88
2022-11-17T19:06:11.652Z,96526.88
2022-11-17T19:08:38.459Z,96518.31
2022-11-17T19:11:06.965Z,96521.50
2022-11-17T19:13:36.441Z,96519.38
2022-11-17T19:16:22.706Z,96520.84
2022-11-17T19:18:51.965Z,96517.66
2022-11-17T19:21:29.465Z,96533.78
2022-11-17T19:23:58.789Z,96519.50
2022-11-17T19:26:30.416Z,96527.78
2022-11-17T19:28:59.437Z,96524.16
2022-11-17T19:31:26.689Z,96531.81
2022-11-17T19:33:54.218Z,96539.94
2022-11-17T19:36:23.716Z,96543.75
2022-11-17T19:38:54.797Z,96549.22
2022-11-17T19:41:27.090Z,96542.19
2022-11-17T19:44:01.370Z,96540.84
2022-11-17T19:46:28.919Z,96543.13
2022-11-17T19:48:56.459Z,96538.00
2022-11-17T19:51:27.051Z,96546.13
2022-11-17T19:54:00.402Z,96545.44
2022-11-17T19:56:27.430Z,96549.41
2022-11-17T19:58:54.107Z,96548.44
2022-11-17T20:01:28.350Z,96549.94
2022-11-17T20:03:56.132Z,96554.06
2022-11-17T20:06:28.577Z,96557.53
2022-11-17T20:08:57.350Z,96560.03
2022-11-17T20:11:26.839Z,96561.22
2022-11-17T20:13:54.835Z,96566.47
2022-11-17T20:16:26.817Z,96573.91
2022-11-17T20:18:56.075Z,96562.50
2022-11-17T20:21:23.367Z,96578.34
2022-11-17T20:23:50.229Z,96575.72
2022-11-17T20:26:25.486Z,96576.09
2022-11-17T20:28:52.444Z,96574.41
2022-11-17T20:31:24.443Z,96568.25
2022-11-17T20:33:53.618Z,96570.75
2022-11-17T20:36:23.465Z,96569.44
2022-11-17T20:38:52.244Z,96573.38
2022-11-17T20:41:20.849Z,96585.91
2022-11-17T20:43:49.167Z,96588.94
2022-11-17T20:46:15.849Z,96585.28
2022-11-17T20:48:42.569Z,96575.72
2022-11-17T20:51:17.807Z,96577.88
2022-11-17T20:53:44.884Z,96573.91
2022-11-17T20:56:13.391Z,96577.03
2022-11-17T20:58:40.434Z,96581.97
2022-11-17T21:01:14.631Z,96580.53
2022-11-17T21:03:41.370Z,96582.34
2022-11-17T21:06:08.696Z,96592.91
2022-11-17T21:08:38.742Z,96591.94
2022-11-17T21:11:10.561Z,96600.34
2022-11-17T21:13:37.866Z,96593.59
2022-11-17T21:16:08.810Z,96599.88
2022-11-17T21:18:36.457Z,96602.50
2022-11-17T21:21:09.824Z,96602.16
2022-11-17T21:23:37.433Z,96598.72
2022-11-17T21:26:08.956Z,96603.19
2022-11-17T21:28:36.911Z,96612.75
2022-11-17T21:31:11.264Z,96612.56
2022-11-17T21:33:38.375Z,96611.91
2022-11-17T21:36:16.052Z,96625.44
2022-11-17T21:38:43.568Z,96623.94
2022-11-17T21:41:12.656Z,96620.63
2022-11-17T21:43:41.059Z,96621.56
2022-11-17T21:46:09.797Z,96616.28
2022-11-17T21:48:37.505Z,96618.25
2022-11-17T21:51:05.686Z,96621.94
2022-11-17T21:53:32.854Z,96625.22
2022-11-17T21:56:06.317Z,96620.59
2022-11-17T21:58:33.542Z,96630.34
2022-11-17T22:01:14.511Z,96639.22
2022-11-17T22:03:42.468Z,96638.44
2022-11-17T22:06:11.173Z,96639.59
2022-11-17T22:08:38.895Z,96630.97
2022-11-17T22:11:11.648Z,96634.28
2022-11-17T22:13:38.729Z,96631.97
2022-11-17T22:16:09.304Z,96633.09
2022-11-17T22:18:35.889Z,96644.34
2022-11-17T22:21:02.734Z,96640.66
2022-11-17T22:23:29.345Z,96639.31
2022-11-17T22:25:59.746Z,96639.31
2022-11-17T22:28:26.847Z,96642.78
2022-11-17T22:30:54.308Z,96636.34
2022-11-17T22:33:21.866Z,96643.94
2022-11-17T22:35:48.505Z,96651.25
2022-11-17T22:38:16.419Z,96651.25
2022-11-17T22:40:43.127Z,96646.44
2022-11-17T22:43:14.609Z,96646.13
2022-11-17T22:45:41.807Z,96647.75
2022-11-17T22:48:08.878Z,96648.91
2022-11-17T22:50:36.173Z,96652.38
2022-11-17T22:53:02.825Z,96661.09
2022-11-17T22:55:29.385Z,96659.94
2022-11-17T22:57:55.880Z,96669.72
2022-11-17T23:00:22.428Z,96672.72
2022-11-17T23:22:12.315Z,96660.66
2022-11-17T23:24:38.775Z,96649.63
2022-11-17T23:27:05.204Z,96655.44
2022-11-17T23:29:31.784Z,96667.53
2022-11-17T23:31:58.176Z,96661.22
2022-11-17T23:34:24.725Z,96663.44
2022-11-17T23:36:51.147Z,96670.53
2022-11-17T23:39:17.752Z,96665.19
2022-11-17T23:41:44.453Z,96666.31
2022-11-17T23:44:10.986Z,96671.31
2022-11-17T23:46:37.521Z,96665.72
2022-11-17T23:49:03.965Z,96672.84
2022-11-17T23:51:30.841Z,96667.03
2022-11-17T23:53:59.623Z,96663.88
2022-11-17T23:56:26.472Z,96670.81
2022-11-17T23:58:52.953Z,96667.78
